CPA927 ZGHA-VHHH
Flight info
| Callsign | CPA927 |
|---|---|
| Flight time | N/A |
| Altitude | 34000 |
| Route | UBM9X/36L UBMOG W615 IDAXI R473 WYN W18 NLG W23 ZUH R473 SIERA SIER7C/07C |
| Aircraft | A359/H-SDE2E3GHIJ1J3J4J5LM1ORWXYZ/LB1D1 |
Departure
| Time | 2026-05-07 19:04 |
|---|---|
| Airport | Changsha Huanghua International Airport (ZGHA) |
Arrival
| Time | N/A |
|---|---|
| Airport | Hong Kong International Airport (VHHH) |
| Time | Latitude | Longitude | Altitude | Speed | Heading |
|---|---|---|---|---|---|
| 2026-05-07 18:45 | 28.19615 | 113.21549 | 224 ft | 0 kts | 260° |
| 2026-05-07 18:54 | 28.19618 | 113.21564 | 225 ft | 2 kts | 259° |
| 2026-05-07 18:54 | 28.19620 | 113.21581 | 225 ft | 2 kts | 259° |
| 2026-05-07 18:54 | 28.19622 | 113.21591 | 225 ft | 2 kts | 257° |
| 2026-05-07 18:54 | 28.19627 | 113.21608 | 225 ft | 2 kts | 239° |
| 2026-05-07 18:55 | 28.19636 | 113.21622 | 225 ft | 2 kts | 224° |
| 2026-05-07 18:55 | 28.19647 | 113.21632 | 225 ft | 2 kts | 210° |
| 2026-05-07 18:55 | 28.19661 | 113.21639 | 225 ft | 2 kts | 196° |
| 2026-05-07 18:55 | 28.19674 | 113.21642 | 225 ft | 2 kts | 183° |
| 2026-05-07 18:56 | 28.19683 | 113.21643 | 225 ft | 1 kts | 175° |
| 2026-05-07 18:56 | 28.19684 | 113.21643 | 225 ft | 0 kts | 176° |
| 2026-05-07 18:58 | 28.19662 | 113.21644 | 224 ft | 7 kts | 178° |
| 2026-05-07 18:58 | 28.19588 | 113.21648 | 225 ft | 12 kts | 178° |
| 2026-05-07 18:59 | 28.19499 | 113.21652 | 224 ft | 11 kts | 176° |
| 2026-05-07 18:59 | 28.19426 | 113.21655 | 225 ft | 11 kts | 182° |
| 2026-05-07 18:59 | 28.19342 | 113.21653 | 224 ft | 12 kts | 176° |
| 2026-05-07 18:59 | 28.19241 | 113.21658 | 225 ft | 12 kts | 177° |
| 2026-05-07 19:00 | 28.19174 | 113.21677 | 224 ft | 5 kts | 140° |
| 2026-05-07 19:00 | 28.19164 | 113.21714 | 224 ft | 7 kts | 98° |
| 2026-05-07 19:00 | 28.19132 | 113.21764 | 225 ft | 11 kts | 155° |
| 2026-05-07 19:00 | 28.19027 | 113.21781 | 225 ft | 19 kts | 177° |
| 2026-05-07 19:01 | 28.18881 | 113.21790 | 225 ft | 22 kts | 176° |
| 2026-05-07 19:01 | 28.18726 | 113.21800 | 224 ft | 22 kts | 176° |
| 2026-05-07 19:01 | 28.18574 | 113.21809 | 225 ft | 24 kts | 177° |
| 2026-05-07 19:01 | 28.18403 | 113.21819 | 225 ft | 24 kts | 176° |
| 2026-05-07 19:02 | 28.18233 | 113.21830 | 224 ft | 23 kts | 176° |
| 2026-05-07 19:02 | 28.18063 | 113.21841 | 225 ft | 24 kts | 177° |
| 2026-05-07 19:02 | 28.17895 | 113.21851 | 225 ft | 24 kts | 177° |
| 2026-05-07 19:02 | 28.17780 | 113.21866 | 224 ft | 11 kts | 155° |
| 2026-05-07 19:03 | 28.17746 | 113.21925 | 225 ft | 11 kts | 100° |
| 2026-05-07 19:03 | 28.17747 | 113.22004 | 225 ft | 7 kts | 77° |
| 2026-05-07 19:03 | 28.17776 | 113.22042 | 225 ft | 5 kts | 13° |
| 2026-05-07 19:03 | 28.17835 | 113.22044 | 225 ft | 11 kts | 356° |
| 2026-05-07 19:04 | 28.18084 | 113.22027 | 225 ft | 71 kts | 357° |
| 2026-05-07 19:04 | 28.18806 | 113.21983 | 225 ft | 135 kts | 356° |
| 2026-05-07 19:04 | 28.19891 | 113.21900 | 450 ft | 167 kts | 356° |
| 2026-05-07 19:04 | 28.20975 | 113.21828 | 1299 ft | 156 kts | 357° |
| 2026-05-07 19:05 | 28.22022 | 113.21775 | 2027 ft | 153 kts | 358° |
| 2026-05-07 19:05 | 28.23111 | 113.21725 | 2425 ft | 164 kts | 358° |
| 2026-05-07 19:05 | 28.24295 | 113.21665 | 2769 ft | 179 kts | 357° |
| 2026-05-07 19:05 | 28.25607 | 113.21591 | 3146 ft | 197 kts | 357° |
| 2026-05-07 19:06 | 28.27002 | 113.21509 | 3624 ft | 211 kts | 357° |
| 2026-05-07 19:06 | 28.30005 | 113.21325 | 5030 ft | 221 kts | 358° |
| 2026-05-07 19:06 | 28.31514 | 113.21618 | 5589 ft | 232 kts | 30° |
| 2026-05-07 19:07 | 28.32629 | 113.22969 | 6060 ft | 250 kts | 66° |
| 2026-05-07 19:07 | 28.32832 | 113.24975 | 6555 ft | 269 kts | 101° |
| 2026-05-07 19:07 | 28.31952 | 113.26836 | 7207 ft | 281 kts | 135° |
| 2026-05-07 19:07 | 28.30308 | 113.27948 | 8051 ft | 286 kts | 158° |
| 2026-05-07 19:08 | 28.28432 | 113.28641 | 8919 ft | 289 kts | 162° |
| 2026-05-07 19:08 | 28.26542 | 113.29270 | 9738 ft | 293 kts | 162° |
| 2026-05-07 19:08 | 28.24616 | 113.29942 | 10550 ft | 296 kts | 161° |
| 2026-05-07 19:08 | 28.22634 | 113.30675 | 11080 ft | 310 kts | 160° |
| 2026-05-07 19:09 | 28.20541 | 113.31484 | 11524 ft | 327 kts | 160° |
| 2026-05-07 19:09 | 28.18363 | 113.32349 | 11942 ft | 343 kts | 159° |
| 2026-05-07 19:09 | 28.16071 | 113.33270 | 12332 ft | 360 kts | 159° |
| 2026-05-07 19:09 | 28.13669 | 113.34242 | 12689 ft | 376 kts | 159° |
| 2026-05-07 19:10 | 28.11159 | 113.35262 | 13022 ft | 392 kts | 159° |
| 2026-05-07 19:10 | 28.08542 | 113.36325 | 13559 ft | 401 kts | 159° |
| 2026-05-07 19:10 | 28.05941 | 113.37382 | 14261 ft | 404 kts | 159° |
| 2026-05-07 19:10 | 28.03334 | 113.38442 | 14957 ft | 407 kts | 159° |
| 2026-05-07 19:11 | 28.00678 | 113.39521 | 15628 ft | 410 kts | 159° |
| 2026-05-07 19:11 | 27.97985 | 113.40617 | 16285 ft | 413 kts | 159° |
| 2026-05-07 19:11 | 27.95266 | 113.41722 | 16933 ft | 416 kts | 159° |
| 2026-05-07 19:11 | 27.92550 | 113.42826 | 17562 ft | 419 kts | 159° |
| 2026-05-07 19:12 | 27.89830 | 113.43931 | 18173 ft | 422 kts | 159° |
| 2026-05-07 19:12 | 27.87100 | 113.45037 | 18764 ft | 425 kts | 159° |
| 2026-05-07 19:12 | 27.84312 | 113.46165 | 19350 ft | 427 kts | 159° |
| 2026-05-07 19:12 | 27.81571 | 113.47274 | 19908 ft | 430 kts | 159° |
| 2026-05-07 19:13 | 27.78774 | 113.48406 | 20460 ft | 433 kts | 159° |
| 2026-05-07 19:13 | 27.75942 | 113.49552 | 21006 ft | 436 kts | 159° |
| 2026-05-07 19:13 | 27.73113 | 113.50697 | 21536 ft | 438 kts | 159° |
| 2026-05-07 19:13 | 27.70406 | 113.51792 | 22029 ft | 441 kts | 159° |
| 2026-05-07 19:14 | 27.67511 | 113.52963 | 22541 ft | 444 kts | 159° |
| 2026-05-07 19:14 | 27.64669 | 113.54112 | 23030 ft | 446 kts | 159° |
| 2026-05-07 19:14 | 27.61757 | 113.55289 | 23512 ft | 449 kts | 160° |
| 2026-05-07 19:14 | 27.58850 | 113.56463 | 23977 ft | 451 kts | 160° |
| 2026-05-07 19:15 | 27.55914 | 113.57648 | 24423 ft | 454 kts | 160° |
| 2026-05-07 19:15 | 27.52957 | 113.58840 | 24852 ft | 456 kts | 160° |
| 2026-05-07 19:15 | 27.49949 | 113.60053 | 25272 ft | 459 kts | 160° |
| 2026-05-07 19:15 | 27.46981 | 113.61249 | 25666 ft | 461 kts | 160° |
| 2026-05-07 19:16 | 27.43917 | 113.62483 | 26052 ft | 464 kts | 160° |
| 2026-05-07 19:16 | 27.40881 | 113.63705 | 26418 ft | 466 kts | 160° |
| 2026-05-07 19:16 | 27.37854 | 113.64924 | 26770 ft | 469 kts | 160° |
| 2026-05-07 19:16 | 27.34823 | 113.66151 | 27110 ft | 471 kts | 161° |
| 2026-05-07 19:17 | 27.31758 | 113.67396 | 27437 ft | 473 kts | 161° |
| 2026-05-07 19:17 | 27.28634 | 113.68658 | 27751 ft | 475 kts | 161° |
| 2026-05-07 19:17 | 27.25498 | 113.69800 | 28055 ft | 477 kts | 164° |
| 2026-05-07 19:17 | 27.22290 | 113.70759 | 28354 ft | 479 kts | 167° |
| 2026-05-07 19:18 | 27.19077 | 113.71504 | 28637 ft | 481 kts | 171° |
| 2026-05-07 19:18 | 27.15789 | 113.72074 | 28916 ft | 483 kts | 172° |
| 2026-05-07 19:18 | 27.12449 | 113.72606 | 29223 ft | 484 kts | 173° |